Aviation Digital Data Service (ADDS)

Output produced by METARs form (1841 UTC 18 April 2019)
found at http://www.aviationweather.gov/metar/data/
 
Forecast for: BGSF (SONDRE STROMFJOR, GL)
Text: TAF BGSF 181705Z 1818/1901 04008KT 9999 SCT030
Forecast period: 1800 UTC 18 April 2019 to 0100 UTC 19 April 2019
Forecast type: FROM: standard forecast or significant change
Winds: from the NE (40 degrees) at 9 MPH (8 knots; 4.1 m/s)
Visibility: 6 or more miles 10+ km)
Ceiling: at least 12,000 feet AGL
Clouds: scattered clouds at 3000 feet AGL
Weather: no significant weather forecast for this period